Terminal Aerodrome Forecast
Issued by NWS

Home | Current Version | Previous Version | Graphics & Text | Print | Product List | Glossary On
Versions: 1 2 3 4 5 6 7 8 9 10 11 12 13 14 15 16 17 18
000
FTUS43 KICT 250656 AAB
TAFCNU
TAF AMD
KCNU 250656Z 2507/2606 VRB15KT 4SM TSRA BKN035CB
      TEMPO 2507/2509 VRB25KT 1SM +TSRA BKN010 OVC035CB
     FM250900 15006KT P6SM VCTS BKN015CB
     FM251600 14006KT P6SM SCT020 BKN100
     FM252200 13008KT P6SM VCTS SCT035CB BKN100=

USA.gov is the U.S. government's official web portal to all federal, state and local government web resources and services.